createdAt,value
2019-02-21T00:00:47.132Z,8.43
2019-02-21T00:03:18.588Z,8.37
2019-02-21T00:05:49.814Z,8.37
2019-02-21T00:08:20.797Z,8.37
2019-02-21T00:10:52.014Z,8.26
2019-02-21T00:13:23.900Z,8.29
2019-02-21T00:15:54.888Z,8.23
2019-02-21T00:18:26.337Z,8.33
2019-02-21T00:20:57.383Z,8.19
2019-02-21T00:23:28.689Z,8.15
2019-02-21T00:26:00.567Z,8.18
2019-02-21T00:28:31.807Z,8.19
2019-02-21T00:31:02.845Z,8.35
2019-02-21T00:33:34.209Z,8.25
2019-02-21T00:36:05.249Z,8.22
2019-02-21T00:38:36.218Z,8.15
2019-02-21T00:41:07.553Z,8.04
2019-02-21T00:43:39.855Z,7.98
2019-02-21T00:46:11.154Z,7.82
2019-02-21T00:48:42.156Z,7.84
2019-02-21T00:51:13.116Z,8.05
2019-02-21T00:53:44.519Z,8.05
2019-02-21T00:56:15.498Z,8.07
2019-02-21T00:58:46.653Z,8.02
2019-02-21T01:01:20.770Z,7.96
2019-02-21T01:03:50.989Z,7.80
2019-02-21T01:06:22.244Z,7.79
2019-02-21T01:08:53.304Z,7.65
2019-02-21T01:11:24.567Z,7.70
2019-02-21T01:13:55.717Z,7.73
2019-02-21T01:16:26.940Z,7.83
2019-02-21T01:18:57.999Z,7.75
2019-02-21T01:21:29.525Z,7.75
2019-02-21T01:24:01.161Z,7.56
2019-02-21T01:26:33.135Z,7.41
2019-02-21T01:29:04.381Z,7.45
2019-02-21T01:31:35.701Z,7.60
2019-02-21T01:34:06.992Z,7.80
2019-02-21T01:36:37.970Z,7.68
2019-02-21T01:39:09.312Z,7.63
2019-02-21T01:41:40.857Z,7.52
2019-02-21T01:44:12.481Z,7.57
2019-02-21T01:46:44.974Z,7.47
2019-02-21T01:49:16.611Z,7.34
2019-02-21T01:51:47.940Z,7.35
2019-02-21T01:54:18.928Z,7.50
2019-02-21T01:56:50.446Z,7.30
2019-02-21T01:59:21.425Z,7.50
2019-02-21T02:01:53.047Z,7.39
2019-02-21T02:04:24.207Z,7.46
2019-02-21T02:06:55.242Z,7.31
2019-02-21T02:09:28.212Z,7.41
2019-02-21T02:11:59.460Z,7.40
2019-02-21T02:14:31.303Z,7.29
2019-02-21T02:17:02.589Z,7.33
2019-02-21T02:19:33.641Z,7.77
2019-02-21T02:22:04.774Z,7.44
2019-02-21T02:24:36.951Z,7.51
2019-02-21T02:27:08.390Z,7.48
2019-02-21T02:29:39.624Z,7.35
2019-02-21T02:32:12.166Z,7.36
2019-02-21T02:34:43.805Z,7.36
2019-02-21T02:37:15.015Z,7.32
2019-02-21T02:39:46.427Z,7.22
2019-02-21T02:42:19.280Z,7.21
2019-02-21T02:44:50.605Z,7.27
2019-02-21T02:47:22.233Z,7.24
2019-02-21T02:49:53.831Z,7.17
2019-02-21T02:52:25.443Z,7.18
2019-02-21T02:54:57.465Z,7.23
2019-02-21T02:57:28.766Z,7.20
2019-02-21T03:00:00.135Z,7.11
2019-02-21T03:02:31.373Z,7.01
2019-02-21T03:05:02.685Z,6.97
2019-02-21T03:07:33.950Z,6.85
2019-02-21T03:10:07.500Z,6.86
2019-02-21T03:12:38.615Z,6.95
2019-02-21T03:15:10.225Z,6.99
2019-02-21T03:17:41.247Z,6.94
2019-02-21T03:20:12.469Z,6.90
2019-02-21T03:22:44.702Z,6.94
2019-02-21T03:25:15.680Z,6.79
2019-02-21T03:27:47.115Z,6.92
2019-02-21T03:30:18.654Z,6.97
2019-02-21T03:32:49.994Z,6.90
2019-02-21T03:35:21.245Z,6.82
2019-02-21T03:37:52.764Z,7.02
2019-02-21T03:40:24.037Z,7.00
2019-02-21T03:42:55.320Z,6.87
2019-02-21T03:45:26.567Z,6.84
2019-02-21T03:47:58.218Z,6.90
2019-02-21T03:50:29.776Z,6.96
2019-02-21T03:53:00.829Z,6.95
2019-02-21T03:55:31.883Z,6.89
2019-02-21T03:58:03.554Z,6.86
2019-02-21T04:00:35.398Z,6.83
2019-02-21T04:03:06.397Z,6.93
2019-02-21T04:05:37.811Z,6.94
2019-02-21T04:08:09.443Z,6.83
2019-02-21T04:10:40.689Z,6.80
2019-02-21T04:13:14.921Z,6.76
2019-02-21T04:15:45.781Z,6.73
2019-02-21T04:18:17.118Z,6.79
2019-02-21T04:20:48.687Z,6.84
2019-02-21T04:23:19.983Z,6.85
2019-02-21T04:25:51.480Z,6.94
2019-02-21T04:28:22.826Z,6.96
2019-02-21T04:30:54.393Z,6.78
2019-02-21T04:33:26.244Z,6.99
2019-02-21T04:35:57.841Z,6.99
2019-02-21T04:38:30.389Z,6.85
2019-02-21T04:41:02.040Z,6.72
2019-02-21T04:43:33.099Z,6.73
2019-02-21T04:46:04.441Z,6.87
2019-02-21T04:48:35.799Z,6.86
2019-02-21T04:51:06.945Z,6.84
2019-02-21T04:53:37.962Z,6.84
2019-02-21T04:56:09.034Z,6.82
2019-02-21T04:58:41.210Z,6.79
2019-02-21T05:01:12.647Z,6.84
2019-02-21T05:03:45.349Z,6.98
2019-02-21T05:06:17.196Z,6.94
2019-02-21T05:08:49.503Z,6.84
2019-02-21T05:11:20.778Z,6.76
2019-02-21T05:13:53.567Z,6.91
2019-02-21T05:16:25.447Z,6.83
2019-02-21T05:18:57.110Z,6.80
2019-02-21T05:24:15.543Z,6.82
2019-02-21T05:26:51.116Z,6.81
2019-02-21T05:29:22.341Z,6.80
2019-02-21T05:32:04.016Z,6.75
2019-02-21T05:35:03.242Z,6.82
2019-02-21T05:37:44.150Z,6.73
2019-02-21T05:40:34.157Z,6.68
2019-02-21T05:43:17.078Z,6.69
2019-02-21T05:46:06.413Z,6.68
2019-02-21T05:48:51.044Z,6.69
2019-02-21T05:51:30.689Z,6.69
2019-02-21T05:54:21.632Z,6.64
2019-02-21T05:57:06.221Z,6.42
2019-02-21T06:00:08.388Z,6.46
2019-02-21T06:02:53.493Z,6.51
2019-02-21T06:05:28.699Z,6.64
2019-02-21T06:08:25.555Z,6.55
2019-02-21T06:11:04.334Z,6.52
2019-02-21T06:14:09.500Z,6.51
2019-02-21T06:17:01.718Z,6.52
2019-02-21T06:19:47.973Z,6.60
2019-02-21T06:22:46.462Z,6.64
2019-02-21T06:25:32.562Z,6.53
2019-02-21T06:28:25.544Z,6.66
2019-02-21T06:31:00.516Z,6.51
2019-02-21T06:33:31.927Z,6.49
2019-02-21T06:36:03.398Z,6.52
2019-02-21T06:38:36.197Z,6.60
2019-02-21T06:41:07.221Z,6.58
2019-02-21T06:43:38.554Z,6.61
2019-02-21T06:46:10.171Z,6.54
2019-02-21T06:48:41.334Z,6.64
2019-02-21T06:51:12.776Z,6.72
2019-02-21T06:53:43.753Z,6.74
2019-02-21T06:56:14.723Z,6.59
2019-02-21T06:58:46.331Z,6.58
2019-02-21T07:01:26.698Z,6.68
2019-02-21T07:03:50.659Z,6.77
2019-02-21T07:06:31.539Z,6.86
2019-02-21T07:08:54.343Z,6.93
2019-02-21T07:11:25.816Z,6.89
2019-02-21T07:13:57.264Z,6.88
2019-02-21T07:16:28.449Z,6.93
2019-02-21T07:18:59.897Z,6.85
2019-02-21T07:21:31.306Z,7.05
2019-02-21T07:24:02.307Z,7.06
2019-02-21T07:26:33.406Z,7.23
2019-02-21T07:29:04.383Z,7.29
2019-02-21T07:31:35.421Z,7.34
2019-02-21T07:34:07.145Z,7.47
2019-02-21T07:36:38.612Z,7.47
2019-02-21T07:39:17.464Z,7.34
2019-02-21T07:41:42.916Z,7.41
2019-02-21T07:44:14.504Z,7.54
2019-02-21T07:46:46.342Z,7.45
2019-02-21T07:49:17.765Z,7.56
2019-02-21T07:51:49.160Z,7.62
2019-02-21T07:54:21.009Z,7.77
2019-02-21T07:56:52.981Z,7.82
2019-02-21T07:59:23.950Z,7.91
2019-02-21T08:01:55.884Z,8.00
2019-02-21T08:04:27.101Z,8.00
2019-02-21T08:06:58.379Z,8.19
2019-02-21T08:09:29.436Z,8.27
2019-02-21T08:12:00.969Z,8.37
2019-02-21T08:14:32.331Z,8.49
2019-02-21T08:17:03.372Z,8.64
2019-02-21T08:19:34.532Z,8.67
2019-02-21T08:22:05.750Z,8.52
2019-02-21T08:24:36.717Z,8.63
2019-02-21T08:27:07.680Z,8.83
2019-02-21T08:29:39.285Z,8.99
2019-02-21T08:32:12.134Z,9.21
2019-02-21T08:34:48.183Z,9.28
2019-02-21T08:37:18.773Z,9.36
2019-02-21T08:39:50.668Z,9.39
2019-02-21T08:42:22.375Z,9.34
2019-02-21T08:44:55.054Z,9.43
2019-02-21T08:47:26.124Z,9.47
2019-02-21T08:49:59.601Z,9.66
2019-02-21T08:52:30.297Z,9.86
2019-02-21T08:55:01.611Z,9.96
2019-02-21T08:57:32.579Z,10.16
2019-02-21T09:00:03.690Z,10.12
2019-02-21T09:02:36.009Z,10.34
2019-02-21T09:05:09.469Z,10.53
2019-02-21T09:07:40.692Z,10.80
2019-02-21T09:10:12.643Z,10.88
2019-02-21T09:12:48.083Z,11.08
2019-02-21T09:15:17.483Z,11.17
2019-02-21T09:17:48.451Z,11.33
2019-02-21T09:20:20.698Z,11.48
2019-02-21T09:22:51.897Z,11.57
2019-02-21T09:25:22.882Z,11.67
2019-02-21T09:27:54.088Z,11.75
2019-02-21T09:30:25.142Z,11.87
2019-02-21T09:32:56.410Z,12.05
2019-02-21T09:35:27.662Z,12.06
2019-02-21T09:37:58.745Z,12.21
2019-02-21T09:40:29.810Z,12.42
2019-02-21T09:43:01.405Z,12.50
2019-02-21T09:45:33.189Z,12.55
2019-02-21T09:48:04.229Z,12.55
2019-02-21T09:50:35.275Z,12.78
2019-02-21T09:53:06.299Z,12.77
2019-02-21T09:55:37.291Z,12.97
2019-02-21T09:58:08.395Z,13.17
2019-02-21T10:00:39.449Z,13.29
2019-02-21T10:03:10.492Z,13.52
2019-02-21T10:05:41.894Z,13.58
2019-02-21T10:08:12.864Z,13.78
2019-02-21T10:10:44.182Z,13.86
2019-02-21T10:13:15.742Z,13.87
2019-02-21T10:15:47.225Z,13.94
2019-02-21T10:18:18.537Z,13.95
2019-02-21T10:20:49.600Z,14.04
2019-02-21T10:23:21.364Z,14.09
2019-02-21T10:25:52.418Z,14.11
2019-02-21T10:28:23.722Z,14.19
2019-02-21T10:30:54.704Z,14.12
2019-02-21T10:33:26.594Z,14.13
2019-02-21T10:36:00.440Z,14.28
2019-02-21T10:38:30.652Z,14.36
2019-02-21T10:41:01.739Z,14.46
2019-02-21T10:43:33.723Z,14.61
2019-02-21T10:46:04.775Z,14.73
2019-02-21T10:48:36.094Z,14.80
2019-02-21T10:51:07.160Z,14.89
2019-02-21T10:53:38.383Z,15.05
2019-02-21T10:56:09.801Z,15.13
2019-02-21T10:58:40.797Z,15.21
2019-02-21T11:01:12.179Z,15.24
2019-02-21T11:03:43.523Z,15.27
2019-02-21T11:06:14.542Z,15.46
2019-02-21T11:08:45.806Z,15.51
2019-02-21T11:11:17.330Z,15.46
2019-02-21T11:13:48.450Z,15.57
2019-02-21T11:16:19.760Z,15.70
2019-02-21T11:18:51.918Z,15.86
2019-02-21T11:21:22.891Z,15.97
2019-02-21T11:23:54.229Z,16.13
2019-02-21T11:26:25.591Z,16.13
2019-02-21T11:28:56.885Z,16.14
2019-02-21T11:31:28.065Z,16.12
2019-02-21T11:33:59.022Z,16.18
2019-02-21T11:36:29.997Z,16.30
2019-02-21T11:39:01.200Z,16.32
2019-02-21T11:41:34.739Z,16.16
2019-02-21T11:44:05.838Z,16.15
2019-02-21T11:46:36.834Z,16.24
2019-02-21T11:49:08.255Z,16.36
2019-02-21T11:51:39.270Z,16.41
2019-02-21T11:54:10.287Z,16.53
2019-02-21T11:56:41.264Z,16.67
2019-02-21T11:59:16.038Z,16.72
2019-02-21T12:01:46.513Z,16.78
2019-02-21T12:04:17.573Z,16.81
2019-02-21T12:06:48.711Z,16.82
2019-02-21T12:09:19.836Z,16.83
2019-02-21T12:11:51.821Z,16.81
2019-02-21T12:14:23.152Z,16.96
2019-02-21T12:16:54.137Z,16.87
2019-02-21T12:19:25.411Z,16.86
2019-02-21T12:21:59.335Z,16.72
2019-02-21T12:24:29.078Z,16.67
2019-02-21T12:27:00.078Z,16.65
2019-02-21T12:29:31.296Z,16.64
2019-02-21T12:32:02.593Z,16.60
2019-02-21T12:34:34.117Z,16.60
2019-02-21T12:37:05.142Z,16.65
2019-02-21T12:39:36.421Z,16.58
2019-02-21T12:42:07.492Z,16.53
2019-02-21T12:44:38.738Z,16.54
2019-02-21T12:47:09.737Z,16.49
2019-02-21T12:49:40.805Z,16.43
2019-02-21T12:52:11.859Z,16.47
2019-02-21T12:54:42.835Z,16.31
2019-02-21T12:57:14.054Z,16.32
2019-02-21T12:59:45.454Z,16.37
2019-02-21T13:02:16.441Z,16.39
2019-02-21T13:04:47.670Z,16.44
2019-02-21T13:07:18.718Z,16.51
2019-02-21T13:09:49.698Z,16.45
2019-02-21T13:12:21.722Z,16.56
2019-02-21T13:14:53.050Z,16.56
2019-02-21T13:17:24.031Z,16.60
2019-02-21T13:19:55.836Z,16.63
2019-02-21T13:22:30.148Z,16.59
2019-02-21T13:25:01.618Z,16.62
2019-02-21T13:27:34.716Z,16.66
2019-02-21T13:30:08.097Z,16.64
2019-02-21T13:32:39.069Z,16.64
2019-02-21T13:35:10.583Z,16.66
2019-02-21T13:37:41.961Z,16.73
2019-02-21T13:40:14.330Z,16.79
2019-02-21T13:42:45.775Z,16.72
2019-02-21T13:45:17.944Z,16.75
2019-02-21T13:47:49.683Z,16.74
2019-02-21T13:50:23.874Z,16.75
2019-02-21T13:52:54.550Z,16.75
2019-02-21T13:55:25.770Z,16.69
2019-02-21T13:57:57.532Z,16.68
2019-02-21T14:00:29.077Z,16.64
2019-02-21T14:03:00.548Z,16.55
2019-02-21T14:05:31.520Z,16.55
2019-02-21T14:08:02.761Z,16.54
2019-02-21T14:10:34.034Z,16.53
2019-02-21T14:13:05.428Z,16.57
2019-02-21T14:15:36.772Z,16.54
2019-02-21T14:18:07.751Z,16.48
2019-02-21T14:20:45.397Z,16.49
2019-02-21T14:23:12.343Z,16.51
2019-02-21T14:25:46.378Z,16.58
2019-02-21T14:28:20.101Z,16.50
2019-02-21T14:30:52.079Z,16.48
2019-02-21T14:33:23.407Z,16.45
2019-02-21T14:35:55.039Z,16.45
2019-02-21T14:38:28.213Z,16.40
2019-02-21T14:40:59.982Z,16.41
2019-02-21T14:43:31.079Z,16.54
2019-02-21T14:46:02.606Z,16.59
2019-02-21T14:48:34.643Z,16.57
2019-02-21T14:51:05.802Z,16.40
2019-02-21T14:53:37.684Z,16.33
2019-02-21T14:56:08.934Z,16.23
2019-02-21T14:58:40.761Z,16.35
2019-02-21T15:01:12.503Z,16.38
2019-02-21T15:03:43.968Z,16.42
2019-02-21T15:06:26.537Z,16.40
2019-02-21T15:08:48.013Z,16.33
2019-02-21T15:11:19.636Z,16.30
2019-02-21T15:13:51.306Z,16.25
2019-02-21T15:16:22.372Z,16.24
2019-02-21T15:18:55.346Z,16.22
2019-02-21T15:21:26.480Z,16.19
2019-02-21T15:23:57.529Z,16.14
2019-02-21T15:26:28.502Z,16.13
2019-02-21T15:29:00.123Z,16.10
2019-02-21T15:31:31.176Z,16.04
2019-02-21T15:34:02.437Z,15.94
2019-02-21T15:36:38.323Z,15.95
2019-02-21T15:39:09.945Z,15.93
2019-02-21T15:41:40.958Z,15.90
2019-02-21T15:44:12.298Z,15.93
2019-02-21T15:46:43.347Z,15.88
2019-02-21T15:49:14.620Z,15.85
2019-02-21T15:51:45.759Z,15.79
2019-02-21T15:54:16.734Z,15.76
2019-02-21T15:56:47.728Z,15.76
2019-02-21T15:59:19.209Z,15.73
2019-02-21T16:01:50.222Z,15.64
2019-02-21T16:04:22.705Z,15.62
2019-02-21T16:06:54.330Z,15.64
2019-02-21T16:09:25.608Z,15.62
2019-02-21T16:11:57.626Z,15.56
2019-02-21T16:14:28.718Z,15.46
2019-02-21T16:16:59.999Z,15.51
2019-02-21T16:19:31.282Z,15.45
2019-02-21T16:22:02.337Z,15.27
2019-02-21T16:24:33.339Z,15.35
2019-02-21T16:27:04.709Z,15.31
2019-02-21T16:29:36.367Z,15.27
2019-02-21T16:32:07.339Z,15.22
2019-02-21T16:34:38.370Z,15.20
2019-02-21T16:37:09.700Z,15.14
2019-02-21T16:39:40.786Z,15.12
2019-02-21T16:42:12.079Z,15.10
2019-02-21T16:44:43.434Z,14.96
2019-02-21T16:47:14.489Z,15.03
2019-02-21T16:49:45.538Z,14.96
2019-02-21T16:52:16.882Z,14.87
2019-02-21T16:54:48.263Z,14.79
2019-02-21T16:57:19.234Z,14.78
2019-02-21T16:59:50.518Z,14.65
2019-02-21T17:02:22.736Z,14.53
2019-02-21T17:04:55.855Z,14.48
2019-02-21T17:07:27.049Z,14.34
2019-02-21T17:09:58.890Z,14.36
2019-02-21T17:12:30.156Z,14.26
2019-02-21T17:15:01.458Z,14.07
2019-02-21T17:17:33.263Z,14.06
2019-02-21T17:20:05.275Z,14.03
2019-02-21T17:22:37.662Z,14.05
2019-02-21T17:25:10.399Z,13.92
2019-02-21T17:27:42.321Z,13.70
2019-02-21T17:30:16.356Z,13.68
2019-02-21T17:32:47.598Z,13.58
2019-02-21T17:35:18.994Z,13.58
2019-02-21T17:37:50.280Z,13.49
2019-02-21T17:40:23.754Z,13.47
2019-02-21T17:42:54.892Z,13.49
2019-02-21T17:45:25.892Z,13.32
2019-02-21T17:47:57.187Z,13.29
2019-02-21T17:50:28.623Z,13.20
2019-02-21T17:52:59.698Z,13.15
2019-02-21T17:55:31.430Z,13.15
2019-02-21T17:58:02.630Z,12.96
2019-02-21T18:00:36.341Z,12.90
2019-02-21T18:03:07.485Z,12.88
2019-02-21T18:05:38.501Z,12.93
2019-02-21T18:08:09.811Z,13.03
2019-02-21T18:10:41.045Z,13.06
2019-02-21T18:13:12.511Z,13.00
2019-02-21T18:15:43.604Z,13.04
2019-02-21T18:18:14.700Z,13.09
2019-02-21T18:20:46.043Z,13.05
2019-02-21T18:23:17.008Z,13.04
2019-02-21T18:26:05.731Z,12.97
2019-02-21T18:28:37.700Z,13.00
2019-02-21T18:31:20.620Z,12.93
2019-02-21T18:33:52.419Z,12.74
2019-02-21T18:36:23.445Z,12.71
2019-02-21T18:38:54.438Z,12.84
2019-02-21T18:41:25.743Z,12.82
2019-02-21T18:43:57.074Z,12.91
2019-02-21T18:46:28.090Z,12.93
2019-02-21T18:48:59.353Z,12.92
2019-02-21T18:51:30.938Z,13.07
2019-02-21T18:54:01.958Z,13.00
2019-02-21T18:56:33.343Z,12.94
2019-02-21T18:59:04.357Z,12.97
2019-02-21T19:01:36.011Z,12.90
2019-02-21T19:04:07.331Z,12.84
2019-02-21T19:06:38.654Z,12.84
2019-02-21T19:09:10.338Z,12.71
2019-02-21T19:11:41.732Z,12.78
2019-02-21T19:14:13.130Z,12.73
2019-02-21T19:16:45.001Z,12.69
2019-02-21T19:19:16.058Z,12.75
2019-02-21T19:21:47.482Z,12.77
2019-02-21T19:24:18.566Z,12.64
2019-02-21T19:26:50.694Z,12.65
2019-02-21T19:29:22.657Z,12.67
2019-02-21T19:31:53.676Z,12.68
2019-02-21T19:34:25.496Z,12.71
2019-02-21T19:36:56.789Z,12.81
2019-02-21T19:39:28.155Z,12.73
2019-02-21T19:41:59.967Z,12.76
2019-02-21T19:44:31.466Z,12.75
2019-02-21T19:47:02.859Z,12.75
2019-02-21T19:49:34.165Z,12.73
2019-02-21T19:52:05.548Z,12.73
2019-02-21T19:54:36.690Z,12.72
2019-02-21T19:57:07.949Z,12.78
2019-02-21T19:59:39.251Z,12.84
2019-02-21T20:02:10.341Z,12.66
2019-02-21T20:04:41.467Z,12.65
2019-02-21T20:07:12.619Z,12.60
2019-02-21T20:09:43.835Z,12.62
2019-02-21T20:12:14.850Z,12.54
2019-02-21T20:14:45.966Z,12.53
2019-02-21T20:17:17.389Z,12.54
2019-02-21T20:19:48.357Z,12.47
2019-02-21T20:22:19.402Z,12.47
2019-02-21T20:24:50.801Z,12.47
2019-02-21T20:27:23.112Z,12.37
2019-02-21T20:29:54.410Z,12.33
2019-02-21T20:32:25.707Z,12.36
2019-02-21T20:34:56.729Z,12.29
2019-02-21T20:37:27.902Z,12.29
2019-02-21T20:39:59.283Z,12.33
2019-02-21T20:42:31.624Z,12.28
2019-02-21T20:45:02.911Z,12.26
2019-02-21T20:47:34.014Z,12.19
2019-02-21T20:50:05.328Z,12.21
2019-02-21T20:52:37.009Z,12.21
2019-02-21T20:55:08.420Z,12.29
2019-02-21T20:57:39.893Z,12.30
2019-02-21T21:00:12.789Z,12.23
2019-02-21T21:02:44.550Z,12.37
2019-02-21T21:05:16.265Z,12.35
2019-02-21T21:07:47.358Z,12.22
2019-02-21T21:10:20.279Z,12.25
2019-02-21T21:12:52.603Z,12.21
2019-02-21T21:15:23.736Z,12.20
2019-02-21T21:17:55.583Z,12.32
2019-02-21T21:20:26.901Z,12.22
2019-02-21T21:22:57.907Z,12.11
2019-02-21T21:25:31.861Z,12.24
2019-02-21T21:28:02.388Z,12.24
2019-02-21T21:30:34.647Z,12.28
2019-02-21T21:33:06.010Z,12.28
2019-02-21T21:35:37.469Z,12.17
2019-02-21T21:38:08.809Z,12.19
2019-02-21T21:40:41.435Z,12.27
2019-02-21T21:43:12.455Z,12.18
2019-02-21T21:45:43.742Z,12.24
2019-02-21T21:48:14.982Z,12.35
2019-02-21T21:50:46.293Z,12.31
2019-02-21T21:53:17.282Z,12.29
2019-02-21T21:55:49.428Z,12.27
2019-02-21T21:58:20.664Z,12.35
2019-02-21T22:00:53.426Z,12.38
2019-02-21T22:03:25.061Z,12.31
2019-02-21T22:05:56.186Z,12.34
2019-02-21T22:08:27.355Z,12.35
2019-02-21T22:10:58.677Z,12.38
2019-02-21T22:13:29.929Z,12.37
2019-02-21T22:16:00.924Z,12.34
2019-02-21T22:18:32.220Z,12.38
2019-02-21T22:21:03.278Z,12.43
2019-02-21T22:23:34.334Z,12.37
2019-02-21T22:26:05.364Z,12.34
2019-02-21T22:28:36.506Z,12.34
2019-02-21T22:31:08.508Z,12.36
2019-02-21T22:33:40.010Z,12.37
2019-02-21T22:36:11.250Z,12.37
2019-02-21T22:38:42.589Z,12.37
2019-02-21T22:41:13.978Z,12.37
2019-02-21T22:43:45.918Z,12.41
2019-02-21T22:46:17.070Z,12.40
2019-02-21T22:48:48.049Z,12.41
2019-02-21T22:51:20.015Z,12.40
2019-02-21T22:53:51.333Z,12.20
2019-02-21T22:56:22.792Z,12.35
2019-02-21T22:58:53.770Z,12.45
2019-02-21T23:01:46.176Z,12.29
2019-02-21T23:05:19.846Z,12.40
2019-02-21T23:08:09.534Z,12.54
2019-02-21T23:10:41.795Z,12.55
2019-02-21T23:13:13.358Z,12.61
2019-02-21T23:15:44.491Z,12.56
2019-02-21T23:18:15.581Z,12.62
2019-02-21T23:20:46.942Z,12.65
2019-02-21T23:23:18.338Z,12.70
2019-02-21T23:25:49.319Z,12.72
2019-02-21T23:28:20.348Z,12.74
2019-02-21T23:30:51.374Z,12.75
2019-02-21T23:33:24.546Z,12.84
2019-02-21T23:35:55.512Z,12.82
2019-02-21T23:38:26.853Z,12.82
2019-02-21T23:40:58.209Z,12.87
2019-02-21T23:43:29.340Z,12.91
2019-02-21T23:46:00.405Z,12.96
2019-02-21T23:48:31.387Z,12.95
2019-02-21T23:51:02.472Z,12.96
2019-02-21T23:53:34.003Z,12.95
2019-02-21T23:56:05.289Z,12.91
2019-02-21T23:58:36.363Z,12.98
